createdAt,value
2019-05-20T00:07:14.928Z,76.30
2019-05-20T00:37:17.552Z,78.10
2019-05-20T01:07:20.214Z,78.00
2019-05-20T01:37:23.417Z,78.20
2019-05-20T02:07:26.037Z,78.00
2019-05-20T02:37:28.659Z,79.30
2019-05-20T03:07:34.335Z,79.60
2019-05-20T03:37:36.946Z,78.80
2019-05-20T04:07:39.560Z,79.00
2019-05-20T04:37:42.169Z,79.00
2019-05-20T05:07:44.789Z,77.80
2019-05-20T05:37:47.759Z,76.90
2019-05-20T06:07:50.738Z,78.70
2019-05-20T06:37:53.365Z,76.70
2019-05-20T07:07:55.985Z,76.50
2019-05-20T07:37:58.607Z,78.50
2019-05-20T08:08:01.427Z,79.50
2019-05-20T08:38:04.302Z,81.80
2019-05-20T09:08:06.943Z,80.60
2019-05-20T09:38:19.364Z,79.70
2019-05-20T10:08:13.815Z,83.90
2019-05-20T10:38:16.442Z,82.50
2019-05-20T11:08:19.079Z,75.30
2019-05-20T11:38:21.689Z,72.70
2019-05-20T12:08:24.307Z,67.70
2019-05-20T12:38:26.921Z,63.20
2019-05-20T13:08:29.538Z,59.10
2019-05-20T13:38:33.089Z,54.40
2019-05-20T14:08:35.697Z,51.40
2019-05-20T14:38:38.337Z,47.40
2019-05-20T15:08:41.207Z,44.90
2019-05-20T15:38:44.990Z,43.60
2019-05-20T16:08:48.809Z,44.10
2019-05-20T16:38:51.490Z,42.70
2019-05-20T17:08:54.124Z,43.20
2019-05-20T17:38:56.794Z,43.30
2019-05-20T18:08:59.677Z,45.10
2019-05-20T18:39:02.647Z,48.40
2019-05-20T19:09:06.114Z,51.60
2019-05-20T19:39:08.783Z,53.60
2019-05-20T20:09:12.537Z,55.30
2019-05-20T20:39:15.174Z,56.60
2019-05-20T21:09:17.873Z,58.00
2019-05-20T21:39:20.808Z,60.20
2019-05-20T22:09:23.478Z,62.80
2019-05-20T22:39:26.111Z,64.00
2019-05-20T23:09:28.736Z,66.50
2019-05-20T23:39:31.371Z,66.50
